Time;durP1;ratioP1;P1;durP2;ratioP2;P2;SDS_P1;SDS_P2;PMS_P1;PMS_P2;Temp;Humidity;BMP_temperature;BMP_pressure;BME280_temperature;BME280_humidity;BME280_pressure;Samples;Min_cycle;Max_cycle;Signal;HPM_P1;HPM_P2
2023/04/08 00:02:41;;;;;;;1.90;1.80;;;9.30;99.90;;;;;;10424835;28;20227;-70
2023/04/08 00:07:43;;;;;;;1.70;1.60;;;9.30;99.90;;;;;;10424149;28;20679;-71
2023/04/08 00:12:43;;;;;;;2.17;1.97;;;9.30;99.90;;;;;;10423248;28;20258;-72
2023/04/08 00:17:44;;;;;;;2.43;2.23;;;9.20;99.90;;;;;;10430827;28;20667;-71
2023/04/08 00:22:45;;;;;;;2.20;2.00;;;9.20;99.90;;;;;;10422564;28;20211;-71
2023/04/08 00:27:46;;;;;;;2.13;1.93;;;9.30;99.90;;;;;;10422639;28;20573;-70
2023/04/08 00:32:46;;;;;;;2.50;2.20;;;9.30;99.90;;;;;;10420906;28;20216;-71
2023/04/08 00:37:47;;;;;;;2.50;2.30;;;9.30;99.90;;;;;;10428996;28;20263;-71
2023/04/08 00:42:47;;;;;;;2.27;2.07;;;9.30;99.90;;;;;;10422155;28;20723;-71
2023/04/08 00:47:51;;;;;;;2.93;1.90;;;9.30;99.90;;;;;;10422523;28;20366;-70
2023/04/08 00:52:51;;;;;;;2.30;2.07;;;9.20;99.90;;;;;;10423183;28;20231;-71
2023/04/08 00:57:52;;;;;;;2.50;2.30;;;9.20;99.90;;;;;;10438224;28;20231;-71
2023/04/08 01:03:05;;;;;;;2.30;2.10;;;9.10;99.90;;;;;;10415269;28;20242;-70
2023/04/08 01:08:09;;;;;;;2.30;2.10;;;9.10;99.90;;;;;;10424766;28;20224;-71
2023/04/08 01:13:13;;;;;;;2.63;2.30;;;9.10;99.90;;;;;;10422780;28;20299;-71
2023/04/08 01:18:16;;;;;;;2.80;2.60;;;9.10;99.90;;;;;;10429827;28;20706;-71
2023/04/08 01:23:30;;;;;;;2.60;2.40;;;9.10;99.90;;;;;;10439241;28;20223;-70
2023/04/08 01:28:31;;;;;;;2.80;2.60;;;9.20;99.90;;;;;;10430996;28;20234;-70
2023/04/08 01:33:33;;;;;;;3.37;2.70;;;9.10;99.90;;;;;;10432971;28;20250;-70
2023/04/08 01:38:35;;;;;;;3.00;2.70;;;9.10;99.90;;;;;;10429949;28;20224;-70
2023/04/08 01:43:38;;;;;;;2.30;2.10;;;9.10;99.90;;;;;;10432162;28;20225;-71
2023/04/08 01:48:39;;;;;;;2.90;2.57;;;9.10;99.90;;;;;;10434425;28;20227;-71
2023/04/08 01:53:40;;;;;;;2.97;2.43;;;9.00;99.90;;;;;;10426063;28;20764;-70
2023/04/08 01:58:53;;;;;;;2.50;2.30;;;8.90;99.90;;;;;;10429257;28;20328;-70
2023/04/08 02:03:56;;;;;;;2.67;2.47;;;8.90;99.90;;;;;;10421301;28;20640;-71
2023/04/08 02:08:58;;;;;;;2.63;2.43;;;9.00;99.90;;;;;;10436438;28;20306;-71
2023/04/08 02:13:58;;;;;;;2.60;2.40;;;8.90;99.90;;;;;;10424876;28;20227;-70
2023/04/08 02:19:06;;;;;;;3.03;2.60;;;8.90;99.90;;;;;;10434147;28;20228;-70
2023/04/08 02:24:08;;;;;;;3.33;3.00;;;8.80;99.90;;;;;;10430263;28;20224;-69
2023/04/08 02:29:13;;;;;;;2.90;2.70;;;8.80;99.90;;;;;;10431372;28;20227;-71
2023/04/08 02:34:15;;;;;;;3.70;3.40;;;8.70;99.90;;;;;;10423134;28;20244;-71
2023/04/08 02:39:16;;;;;;;3.43;3.13;;;8.60;99.90;;;;;;10427790;28;20679;-70
2023/04/08 02:44:17;;;;;;;3.70;3.40;;;8.50;99.90;;;;;;10427186;28;20223;-70
2023/04/08 02:49:17;;;;;;;4.33;3.93;;;8.30;99.90;;;;;;10431079;28;20835;-70
2023/04/08 02:54:18;;;;;;;5.40;4.20;;;8.10;99.90;;;;;;10427522;28;20312;-70
2023/04/08 02:59:18;;;;;;;4.03;3.60;;;7.80;99.90;;;;;;10430868;28;20220;-70
2023/04/08 03:04:19;;;;;;;4.43;4.00;;;7.60;99.90;;;;;;10434201;28;20757;-71
2023/04/08 03:09:22;;;;;;;4.73;4.03;;;7.50;99.90;;;;;;10429970;28;20227;-70
2023/04/08 03:14:23;;;;;;;5.00;4.50;;;7.30;99.90;;;;;;10415421;28;20215;-70
2023/04/08 03:19:24;;;;;;;5.97;4.30;;;7.20;99.90;;;;;;10428708;28;20294;-70
2023/04/08 03:24:24;;;;;;;5.23;4.70;;;7.10;99.90;;;;;;10425853;28;20227;-71
2023/04/08 03:29:25;;;;;;;5.90;5.30;;;7.10;99.90;;;;;;10428359;28;20220;-71
2023/04/08 03:34:29;;;;;;;5.50;5.00;;;7.10;99.90;;;;;;10429035;28;20311;-71
2023/04/08 03:39:30;;;;;;;5.70;5.07;;;7.10;99.90;;;;;;10423708;28;20217;-71
2023/04/08 03:44:30;;;;;;;6.77;5.30;;;7.00;99.90;;;;;;10430117;28;20224;-71
2023/04/08 03:49:31;;;;;;;9.63;5.67;;;7.00;99.90;;;;;;10422623;28;20232;-71
2023/04/08 03:54:31;;;;;;;6.93;5.37;;;7.00;99.90;;;;;;10428838;28;20239;-70
2023/04/08 03:59:32;;;;;;;13.43;6.47;;;6.90;99.90;;;;;;10431282;28;20224;-70
2023/04/08 04:04:35;;;;;;;10.77;6.70;;;6.90;99.90;;;;;;10425458;28;20327;-71
2023/04/08 04:09:36;;;;;;;10.37;7.33;;;6.90;99.90;;;;;;10424019;28;20231;-70
2023/04/08 04:14:36;;;;;;;12.53;7.30;;;6.90;99.90;;;;;;10436904;28;20870;-70
2023/04/08 04:19:37;;;;;;;10.93;6.90;;;6.90;99.90;;;;;;10426063;28;20221;-69
2023/04/08 04:24:37;;;;;;;11.93;8.40;;;6.70;99.90;;;;;;10417238;28;20224;-71
2023/04/08 04:29:38;;;;;;;10.30;8.33;;;6.60;99.90;;;;;;10427969;28;20224;-70
2023/04/08 04:34:38;;;;;;;11.40;8.30;;;6.60;99.90;;;;;;10430090;28;20219;-71
2023/04/08 04:39:39;;;;;;;9.73;8.73;;;6.50;99.90;;;;;;10426891;28;20223;-71
2023/04/08 04:44:40;;;;;;;9.53;8.40;;;6.50;99.90;;;;;;10413940;28;20236;-71
2023/04/08 04:49:44;;;;;;;11.30;9.70;;;6.40;99.90;;;;;;10422287;28;20248;-70
2023/04/08 04:54:45;;;;;;;10.70;8.70;;;6.40;99.90;;;;;;10418825;28;20220;-70
2023/04/08 04:59:45;;;;;;;10.10;9.00;;;6.30;99.90;;;;;;10430008;28;20227;-72
2023/04/08 05:04:46;;;;;;;11.33;9.87;;;6.30;99.90;;;;;;10422256;28;20271;-71
2023/04/08 05:09:47;;;;;;;12.33;9.73;;;6.30;99.90;;;;;;10429645;28;20216;-71
2023/04/08 05:14:47;;;;;;;11.97;10.30;;;6.40;99.90;;;;;;10421338;28;20281;-72
2023/04/08 05:19:52;;;;;;;11.23;9.37;;;6.40;99.90;;;;;;10413995;28;20730;-70
2023/04/08 05:24:52;;;;;;;10.97;9.03;;;6.40;99.90;;;;;;10422155;28;20231;-71
2023/04/08 05:29:53;;;;;;;9.77;8.33;;;6.40;99.90;;;;;;10404589;28;20703;-70
2023/04/08 05:34:54;;;;;;;12.27;8.97;;;6.30;99.90;;;;;;10428764;28;20726;-71
2023/04/08 05:39:54;;;;;;;12.07;9.60;;;6.30;99.90;;;;;;10406942;28;20300;-70
2023/04/08 05:44:55;;;;;;;13.77;10.57;;;6.40;99.90;;;;;;10429341;28;20232;-69
2023/04/08 05:49:55;;;;;;;11.93;9.43;;;6.50;99.90;;;;;;10420683;28;20252;-69
2023/04/08 05:54:56;;;;;;;10.30;8.93;;;6.70;99.90;;;;;;10428004;28;20232;-70
2023/04/08 05:59:57;;;;;;;12.37;9.00;;;6.80;99.90;;;;;;10421386;28;20323;-70
2023/04/08 06:04:57;;;;;;;10.13;9.00;;;7.00;99.90;;;;;;10436827;28;20224;-69
2023/04/08 06:09:58;;;;;;;10.83;8.43;;;7.10;99.90;;;;;;10429826;28;20659;-71
2023/04/08 06:14:58;;;;;;;10.43;7.63;;;7.30;99.90;;;;;;10429082;28;20224;-71
2023/04/08 06:20:00;;;;;;;9.77;8.30;;;7.50;99.90;;;;;;10434532;28;20306;-71
2023/04/08 06:25:01;;;;;;;10.53;8.40;;;7.60;99.90;;;;;;10422841;28;20254;-70
2023/04/08 06:30:02;;;;;;;9.03;8.13;;;7.80;99.90;;;;;;10430373;28;20608;-70
2023/04/08 06:35:03;;;;;;;9.20;8.00;;;7.90;99.90;;;;;;10432993;28;20239;-69
2023/04/08 06:40:05;;;;;;;9.00;8.10;;;8.10;99.90;;;;;;10427520;28;20311;-71
2023/04/08 06:45:06;;;;;;;8.80;7.90;;;8.20;99.90;;;;;;10425405;28;20236;-71
2023/04/08 06:50:07;;;;;;;14.67;9.93;;;8.30;99.90;;;;;;10421525;28;20205;-71
2023/04/08 06:55:08;;;;;;;13.60;9.90;;;8.40;99.90;;;;;;10432943;28;20196;-71
2023/04/08 07:00:09;;;;;;;15.03;9.80;;;8.50;99.90;;;;;;10429405;28;20272;-71
2023/04/08 07:05:10;;;;;;;13.07;9.67;;;8.60;99.90;;;;;;10431719;28;20300;-71
2023/04/08 07:10:12;;;;;;;17.00;9.43;;;8.80;99.90;;;;;;10419588;28;20276;-71
2023/04/08 07:15:12;;;;;;;20.77;10.47;;;9.30;99.90;;;;;;10423761;28;20608;-73
2023/04/08 07:20:13;;;;;;;17.93;10.50;;;9.60;99.90;;;;;;10427287;28;20228;-71
2023/04/08 07:25:14;;;;;;;15.43;9.47;;;9.80;99.90;;;;;;10439526;28;20219;-72
2023/04/08 07:30:15;;;;;;;13.50;8.90;;;9.80;99.90;;;;;;10426247;28;20216;-71
2023/04/08 07:35:22;;;;;;;9.93;8.27;;;10.00;99.90;;;;;;10422040;28;20280;-71
2023/04/08 07:40:23;;;;;;;11.10;8.23;;;10.10;99.90;;;;;;10428458;28;20285;-70
2023/04/08 07:45:24;;;;;;;10.47;7.97;;;10.10;99.90;;;;;;10428900;28;20211;-70
2023/04/08 07:50:25;;;;;;;8.97;8.07;;;10.50;99.90;;;;;;10429760;28;20310;-72
2023/04/08 07:55:26;;;;;;;9.70;7.50;;;11.10;99.90;;;;;;10427291;28;20754;-72
2023/04/08 08:00:29;;;;;;;8.47;7.57;;;11.90;99.90;;;;;;10429320;28;20303;-71
2023/04/08 08:05:32;;;;;;;7.77;7.07;;;12.80;99.90;;;;;;10427301;28;20228;-71
2023/04/08 08:10:33;;;;;;;8.47;7.57;;;12.50;99.90;;;;;;10436514;28;20224;-73
2023/04/08 08:15:33;;;;;;;9.57;8.03;;;11.90;99.90;;;;;;10425536;28;20749;-71
2023/04/08 08:20:35;;;;;;;7.97;7.17;;;11.70;99.90;;;;;;10426996;28;20220;-70
2023/04/08 08:25:35;;;;;;;8.20;7.23;;;11.90;99.90;;;;;;10425152;28;20707;-72
2023/04/08 08:30:37;;;;;;;11.40;8.10;;;12.40;99.90;;;;;;10423191;28;20274;-72
2023/04/08 08:35:37;;;;;;;9.00;7.83;;;13.00;99.90;;;;;;10416929;28;20318;-72
2023/04/08 08:40:38;;;;;;;11.40;8.37;;;12.60;99.90;;;;;;10424198;28;20306;-72
2023/04/08 08:45:42;;;;;;;9.13;7.40;;;12.30;99.90;;;;;;10425046;28;20275;-72
2023/04/08 08:50:43;;;;;;;8.67;6.67;;;12.20;99.90;;;;;;10424056;28;20221;-72
2023/04/08 08:55:43;;;;;;;8.10;7.30;;;12.50;99.90;;;;;;10426778;28;20212;-71
2023/04/08 09:00:44;;;;;;;10.27;7.87;;;12.40;99.90;;;;;;10415070;28;20226;-71
2023/04/08 09:05:59;;;;;;;8.87;7.97;;;12.20;99.90;;;;;;10421432;28;20234;-71
2023/04/08 09:11:16;;;;;;;7.93;6.93;;;12.10;99.90;;;;;;10406034;28;20688;-72
2023/04/08 09:16:18;;;;;;;8.73;7.57;;;12.40;99.90;;;;;;10422702;28;20219;-71
2023/04/08 09:21:22;;;;;;;8.97;7.87;;;12.60;99.90;;;;;;10414558;28;20647;-71
2023/04/08 09:26:23;;;;;;;10.57;6.97;;;12.90;99.90;;;;;;10423821;28;20236;-71
2023/04/08 09:31:26;;;;;;;9.60;7.40;;;13.10;99.90;;;;;;10428745;28;20230;-71
2023/04/08 09:36:27;;;;;;;10.73;8.17;;;13.20;99.90;;;;;;10426902;28;20715;-71
2023/04/08 09:41:31;;;;;;;12.10;7.43;;;12.50;99.90;;;;;;10434456;28;20269;-72
2023/04/08 09:46:38;;;;;;;9.60;6.77;;;12.10;99.90;;;;;;10432096;28;20232;-74
2023/04/08 09:51:53;;;;;;;9.17;7.10;;;12.40;99.90;;;;;;10433919;28;20228;-71
2023/04/08 09:57:09;;;;;;;7.53;6.47;;;12.80;99.90;;;;;;10427887;28;20269;-70
2023/04/08 10:02:12;;;;;;;8.83;7.00;;;12.80;99.90;;;;;;10425335;28;20307;-71
2023/04/08 10:07:13;;;;;;;8.50;6.80;;;13.50;99.90;;;;;;10434393;28;20326;-73
2023/04/08 10:12:15;;;;;;;7.10;6.40;;;13.20;99.90;;;;;;10437291;28;20359;-71
2023/04/08 10:17:30;;;;;;;6.50;5.63;;;13.10;99.70;;;;;;10428922;28;20213;-72
2023/04/08 10:22:45;;;;;;;8.07;6.50;;;13.50;96.50;;;;;;10427769;28;20306;-70
2023/04/08 10:27:45;;;;;;;9.30;5.80;;;13.20;97.80;;;;;;10421960;28;20226;-71
2023/04/08 10:32:46;;;;;;;6.37;5.30;;;13.30;97.80;;;;;;10450192;28;20220;-71
2023/04/08 10:37:47;;;;;;;8.50;5.40;;;14.30;96.10;;;;;;10436299;28;20213;-74
2023/04/08 10:42:54;;;;;;;7.87;4.73;;;15.30;93.30;;;;;;10426763;28;20208;-71
2023/04/08 10:47:55;;;;;;;7.20;5.10;;;15.60;90.30;;;;;;10416761;28;20234;-71
2023/04/08 10:52:56;;;;;;;5.27;4.77;;;16.10;90.00;;;;;;10430024;28;20226;-72
2023/04/08 10:58:05;;;;;;;7.70;5.43;;;16.30;84.10;;;;;;10424203;28;20554;-72
2023/04/08 11:03:09;;;;;;;7.23;5.17;;;15.50;87.10;;;;;;10424573;28;20313;-74
2023/04/08 11:08:10;;;;;;;8.33;5.63;;;14.50;92.80;;;;;;10420193;28;20762;-70
2023/04/08 11:13:13;;;;;;;8.20;5.80;;;13.90;95.50;;;;;;10421965;28;20307;-71
2023/04/08 11:18:15;;;;;;;6.67;5.60;;;13.80;95.50;;;;;;10425943;28;20722;-70
2023/04/08 11:23:16;;;;;;;10.43;5.80;;;13.80;96.30;;;;;;10429289;28;20216;-72
2023/04/08 11:28:17;;;;;;;8.20;6.27;;;13.60;96.50;;;;;;10430939;28;20226;-71
2023/04/08 11:33:18;;;;;;;8.80;5.80;;;14.00;95.70;;;;;;10425600;28;20237;-71
2023/04/08 11:38:22;;;;;;;9.90;6.67;;;14.70;94.80;;;;;;10420339;28;20704;-71
2023/04/08 11:43:24;;;;;;;7.43;5.50;;;15.10;93.60;;;;;;10429774;28;20348;-71
2023/04/08 11:48:24;;;;;;;7.83;5.60;;;15.30;94.20;;;;;;10429150;28;20241;-72
2023/04/08 11:53:25;;;;;;;6.47;5.77;;;16.10;93.00;;;;;;10433742;28;20215;-72
2023/04/08 11:58:26;;;;;;;6.00;5.37;;;15.40;93.00;;;;;;10428194;28;20308;-73
2023/04/08 12:03:26;;;;;;;6.90;5.23;;;15.70;93.40;;;;;;10429575;28;20231;-70
2023/04/08 12:08:27;;;;;;;6.27;5.40;;;15.80;93.50;;;;;;10432077;28;20226;-73
2023/04/08 12:13:27;;;;;;;5.57;4.60;;;16.30;92.30;;;;;;10427711;28;20226;-71
2023/04/08 12:18:28;;;;;;;5.07;4.57;;;16.30;92.40;;;;;;10423528;28;20225;-72
2023/04/08 12:23:28;;;;;;;5.33;4.83;;;15.70;93.70;;;;;;10426082;28;20575;-72
2023/04/08 12:28:29;;;;;;;6.23;5.17;;;15.50;94.10;;;;;;10425580;28;20241;-71
2023/04/08 12:33:30;;;;;;;7.30;4.77;;;15.40;94.60;;;;;;10423367;28;20227;-72
2023/04/08 12:38:32;;;;;;;5.70;4.90;;;15.20;94.80;;;;;;10428406;28;20304;-72
2023/04/08 12:43:33;;;;;;;6.17;4.70;;;15.20;95.60;;;;;;10424599;28;20257;-72
2023/04/08 12:48:33;;;;;;;5.67;4.50;;;15.20;95.10;;;;;;10426174;28;20233;-71
2023/04/08 12:53:34;;;;;;;6.07;4.50;;;15.40;94.70;;;;;;10421401;28;20218;-72
2023/04/08 12:58:34;;;;;;;6.47;4.50;;;15.60;94.60;;;;;;10420115;28;20236;-71
2023/04/08 13:03:35;;;;;;;6.37;5.43;;;15.50;94.40;;;;;;10420607;28;20217;-72
2023/04/08 13:08:36;;;;;;;5.80;4.87;;;14.80;96.00;;;;;;10424935;28;20235;-72
2023/04/08 13:13:36;;;;;;;5.17;4.70;;;14.40;97.40;;;;;;10423461;28;20320;-71
2023/04/08 13:18:37;;;;;;;6.80;5.03;;;14.10;97.40;;;;;;10439427;28;20231;-71
2023/04/08 13:23:38;;;;;;;8.00;5.80;;;14.10;98.30;;;;;;10439082;28;20718;-71
2023/04/08 13:28:38;;;;;;;7.50;5.27;;;14.30;98.20;;;;;;10431070;28;20234;-72
2023/04/08 13:33:39;;;;;;;9.80;6.70;;;14.10;99.00;;;;;;10434633;28;20236;-72
2023/04/08 13:38:39;;;;;;;8.53;5.60;;;14.30;99.30;;;;;;10431807;28;20227;-72
2023/04/08 13:43:43;;;;;;;5.70;5.17;;;14.80;98.90;;;;;;10416806;28;20247;-72
2023/04/08 13:48:45;;;;;;;5.30;4.80;;;15.20;98.00;;;;;;10430404;28;20251;-72
2023/04/08 13:53:45;;;;;;;7.37;5.50;;;15.60;97.90;;;;;;10431278;28;20242;-71
2023/04/08 13:58:46;;;;;;;6.13;5.27;;;15.70;97.20;;;;;;10429967;28;20217;-71
2023/04/08 14:03:48;;;;;;;5.93;5.33;;;15.00;98.50;;;;;;10434583;28;20679;-71
2023/04/08 14:08:49;;;;;;;7.40;6.17;;;14.70;99.40;;;;;;10428347;28;20337;-71
2023/04/08 14:13:50;;;;;;;7.23;5.33;;;14.10;99.90;;;;;;10436027;28;20299;-72
2023/04/08 14:18:50;;;;;;;6.83;5.73;;;14.20;99.90;;;;;;10426730;28;20213;-72
2023/04/08 14:23:51;;;;;;;9.43;5.70;;;14.20;99.90;;;;;;10428469;28;20298;-71
2023/04/08 14:28:52;;;;;;;8.13;7.33;;;14.30;99.90;;;;;;10427796;28;20238;-71
2023/04/08 14:33:52;;;;;;;6.10;5.37;;;14.40;99.90;;;;;;10436334;28;20222;-71
2023/04/08 14:38:54;;;;;;;7.00;6.00;;;14.10;99.90;;;;;;10428187;28;20247;-71
2023/04/08 14:43:54;;;;;;;6.33;5.70;;;14.10;99.90;;;;;;10431605;28;20227;-71
2023/04/08 14:48:55;;;;;;;7.60;5.33;;;14.00;99.90;;;;;;10427535;28;20725;-70
2023/04/08 14:53:55;;;;;;;6.80;6.10;;;14.10;99.90;;;;;;10425823;28;20268;-72
2023/04/08 14:58:56;;;;;;;7.67;5.90;;;14.00;99.90;;;;;;10423615;28;20209;-71
2023/04/08 15:03:56;;;;;;;6.80;6.10;;;13.70;99.90;;;;;;10426161;28;20741;-73
2023/04/08 15:08:57;;;;;;;6.97;6.27;;;13.70;99.90;;;;;;10422423;28;20581;-72
2023/04/08 15:13:57;;;;;;;8.37;6.80;;;13.90;99.90;;;;;;10426783;28;20220;-71
2023/04/08 15:18:59;;;;;;;7.83;6.33;;;13.70;99.90;;;;;;10429855;28;20363;-72
2023/04/08 15:23:59;;;;;;;8.87;6.73;;;13.50;99.90;;;;;;10427491;28;20221;-72
2023/04/08 15:29:00;;;;;;;7.77;6.73;;;13.30;99.90;;;;;;10432833;28;20265;-72
2023/04/08 15:34:02;;;;;;;7.80;7.00;;;13.20;99.90;;;;;;10424251;28;20259;-72
2023/04/08 15:39:03;;;;;;;8.80;7.17;;;13.30;99.90;;;;;;10423030;28;20222;-74
2023/04/08 15:44:03;;;;;;;8.57;7.17;;;13.30;99.90;;;;;;10424951;28;20695;-72
2023/04/08 15:49:05;;;;;;;7.93;6.63;;;13.30;99.90;;;;;;10429963;28;20227;-71
2023/04/08 15:54:05;;;;;;;9.80;6.97;;;13.10;99.90;;;;;;10426421;28;20794;-72
2023/04/08 15:59:06;;;;;;;9.47;7.03;;;13.20;99.90;;;;;;10428581;28;20323;-72
2023/04/08 16:04:10;;;;;;;9.57;7.50;;;13.30;99.90;;;;;;10424754;28;20700;-72
2023/04/08 16:09:10;;;;;;;8.27;7.03;;;13.60;99.90;;;;;;10430409;28;20220;-71
2023/04/08 16:14:11;;;;;;;7.47;6.67;;;13.50;99.90;;;;;;10425327;28;20220;-72
2023/04/08 16:19:12;;;;;;;9.50;7.00;;;13.40;99.90;;;;;;10430127;28;20227;-72
2023/04/08 16:24:13;;;;;;;9.93;7.17;;;13.10;99.90;;;;;;10419597;28;20303;-70
2023/04/08 16:29:14;;;;;;;9.27;7.60;;;12.90;99.90;;;;;;10419455;28;20243;-71
2023/04/08 16:34:15;;;;;;;8.07;7.20;;;12.90;99.90;;;;;;10420633;28;20288;-71
2023/04/08 16:39:16;;;;;;;10.00;7.73;;;13.00;99.90;;;;;;10426010;28;20245;-71
2023/04/08 16:44:16;;;;;;;9.23;8.03;;;13.00;99.90;;;;;;10427758;28;20273;-71
2023/04/08 16:49:17;;;;;;;11.13;7.87;;;12.90;99.90;;;;;;10423244;28;20216;-71
2023/04/08 16:54:17;;;;;;;9.77;8.20;;;12.80;99.90;;;;;;10421451;28;20216;-71
2023/04/08 16:59:18;;;;;;;10.20;7.63;;;12.70;99.90;;;;;;10425410;28;20509;-71
2023/04/08 17:04:19;;;;;;;7.47;6.67;;;12.60;99.90;;;;;;10412678;28;20742;-71
2023/04/08 17:09:20;;;;;;;9.13;7.87;;;12.30;99.90;;;;;;10421832;28;20209;-71
2023/04/08 17:14:21;;;;;;;9.23;8.20;;;12.10;99.90;;;;;;10420942;28;20260;-71
2023/04/08 17:19:21;;;;;;;11.53;9.37;;;12.00;99.90;;;;;;10422222;28;20318;-71
2023/04/08 17:24:22;;;;;;;9.90;8.83;;;11.90;99.90;;;;;;10421897;28;20279;-71
2023/04/08 17:29:23;;;;;;;10.77;9.50;;;12.00;99.90;;;;;;10422353;28;20702;-72
2023/04/08 17:34:25;;;;;;;10.17;8.90;;;12.00;99.90;;;;;;10421720;28;20244;-72
2023/04/08 17:39:25;;;;;;;10.10;8.00;;;12.00;99.90;;;;;;10425042;28;20408;-71
2023/04/08 17:44:30;;;;;;;10.30;8.10;;;12.00;99.90;;;;;;10422051;28;20250;-72
2023/04/08 17:49:34;;;;;;;8.63;7.73;;;11.90;99.90;;;;;;10420614;28;20216;-72
2023/04/08 17:54:34;;;;;;;9.53;7.70;;;11.90;99.90;;;;;;10425127;28;20221;-72
2023/04/08 17:59:35;;;;;;;8.50;6.77;;;11.80;99.90;;;;;;10431359;28;20274;-72
2023/04/08 18:04:37;;;;;;;7.20;5.90;;;11.80;99.90;;;;;;10433324;28;20228;-72
2023/04/08 18:09:37;;;;;;;7.47;6.10;;;11.70;99.90;;;;;;10431591;28;20299;-71
2023/04/08 18:14:38;;;;;;;5.00;4.43;;;11.60;99.90;;;;;;10434463;28;20798;-71
2023/04/08 18:19:39;;;;;;;6.40;5.00;;;11.50;99.90;;;;;;10419806;28;20700;-72
2023/04/08 18:24:42;;;;;;;5.67;4.10;;;11.50;99.90;;;;;;10435425;28;20274;-71
2023/04/08 18:29:43;;;;;;;4.00;3.53;;;11.50;99.90;;;;;;10433203;28;20303;-72
2023/04/08 18:34:43;;;;;;;4.30;3.90;;;11.40;99.90;;;;;;10426804;28;20295;-71
2023/04/08 18:39:44;;;;;;;3.80;3.40;;;11.40;99.90;;;;;;10427916;28;20278;-71
2023/04/08 18:44:45;;;;;;;3.70;3.20;;;11.30;99.90;;;;;;10434531;28;20250;-71
2023/04/08 18:49:46;;;;;;;6.00;3.33;;;11.30;99.90;;;;;;10428303;28;20328;-72
2023/04/08 18:54:46;;;;;;;5.70;3.93;;;11.20;99.90;;;;;;10424445;28;20221;-71
2023/04/08 18:59:47;;;;;;;9.87;4.40;;;11.10;99.90;;;;;;10423174;28;20668;-71
2023/04/08 19:04:48;;;;;;;8.77;4.80;;;11.00;99.90;;;;;;10426916;28;20231;-72
2023/04/08 19:09:48;;;;;;;11.23;5.17;;;10.90;99.90;;;;;;10428926;28;20834;-71
2023/04/08 19:14:49;;;;;;;10.03;5.63;;;10.90;99.90;;;;;;10425943;28;20224;-71
2023/04/08 19:19:50;;;;;;;11.70;5.70;;;10.80;99.90;;;;;;10421912;28;20876;-72
2023/04/08 19:24:51;;;;;;;11.20;5.53;;;10.70;99.90;;;;;;10433828;28;20273;-71
2023/04/08 19:29:51;;;;;;;8.90;4.63;;;10.60;99.90;;;;;;10425964;28;20216;-72
2023/04/08 19:34:52;;;;;;;10.03;5.17;;;10.50;99.90;;;;;;10427084;28;20282;-72
2023/04/08 19:39:52;;;;;;;8.43;4.83;;;10.40;99.90;;;;;;10434071;28;20277;-73
2023/04/08 19:44:53;;;;;;;7.27;5.10;;;10.30;99.90;;;;;;10421591;28;20226;-71
2023/04/08 19:49:54;;;;;;;7.13;4.40;;;10.20;99.90;;;;;;10434102;28;20323;-71
2023/04/08 19:54:55;;;;;;;4.07;3.63;;;10.00;99.90;;;;;;10430505;28;20235;-72
2023/04/08 19:59:56;;;;;;;5.27;4.63;;;9.90;99.90;;;;;;10417034;28;20315;-72
2023/04/08 20:04:57;;;;;;;5.10;4.30;;;9.70;99.90;;;;;;10431594;28;20259;-71
2023/04/08 20:09:58;;;;;;;4.90;4.40;;;9.60;99.90;;;;;;10425535;28;20449;-74
2023/04/08 20:14:58;;;;;;;4.57;4.03;;;9.50;99.90;;;;;;10424844;28;20228;-71
2023/04/08 20:19:59;;;;;;;4.80;4.27;;;9.40;99.90;;;;;;10432255;28;20220;-72
2023/04/08 20:24:59;;;;;;;4.87;4.37;;;9.30;99.90;;;;;;10424962;28;20225;-72
2023/04/08 20:30:00;;;;;;;5.13;4.40;;;9.20;99.90;;;;;;10431859;28;20223;-71
2023/04/08 20:35:01;;;;;;;5.50;4.80;;;9.20;99.90;;;;;;10424940;28;20255;-71
2023/04/08 20:40:02;;;;;;;5.97;4.23;;;9.10;99.90;;;;;;10420926;28;20239;-71
2023/04/08 20:45:03;;;;;;;6.80;5.27;;;9.00;99.90;;;;;;10423679;28;20226;-71
2023/04/08 20:50:05;;;;;;;6.00;5.07;;;8.90;99.90;;;;;;10423617;28;20223;-71
2023/04/08 20:55:06;;;;;;;5.37;4.70;;;8.80;99.90;;;;;;10428451;28;20252;-71
2023/04/08 21:00:08;;;;;;;5.43;4.70;;;8.80;99.90;;;;;;10423639;28;20184;-71
2023/04/08 21:05:09;;;;;;;6.23;4.77;;;8.80;99.90;;;;;;10422286;28;20207;-71
2023/04/08 21:10:11;;;;;;;7.10;5.60;;;8.70;99.90;;;;;;10429199;28;20543;-72
2023/04/08 21:15:12;;;;;;;12.37;5.80;;;8.60;99.90;;;;;;10415988;28;20181;-71
2023/04/08 21:20:12;;;;;;;10.83;6.13;;;8.50;99.90;;;;;;10419293;28;20180;-71
2023/04/08 21:25:13;;;;;;;11.23;6.60;;;8.30;99.90;;;;;;10425339;28;20212;-71
2023/04/08 21:30:17;;;;;;;9.23;6.43;;;8.10;99.90;;;;;;10427245;28;20193;-71
2023/04/08 21:35:17;;;;;;;7.00;5.47;;;7.90;99.90;;;;;;10432803;28;20190;-70
2023/04/08 21:40:18;;;;;;;7.43;5.50;;;7.80;99.90;;;;;;10430072;28;20177;-71
2023/04/08 21:45:18;;;;;;;10.33;7.03;;;7.70;99.90;;;;;;10431209;28;20247;-71
2023/04/08 21:50:19;;;;;;;12.17;7.23;;;7.50;99.90;;;;;;10427536;28;20210;-71
2023/04/08 21:55:20;;;;;;;8.77;6.20;;;7.40;99.90;;;;;;10430136;28;20172;-71
2023/04/08 22:00:20;;;;;;;6.17;5.43;;;7.30;99.90;;;;;;10433882;28;20207;-71
2023/04/08 22:05:22;;;;;;;11.50;6.37;;;7.20;99.90;;;;;;10432299;28;20593;-70
2023/04/08 22:10:23;;;;;;;10.57;6.90;;;7.20;99.90;;;;;;10431401;28;20633;-70
2023/04/08 22:15:23;;;;;;;14.33;7.40;;;7.10;99.90;;;;;;10432378;28;20270;-71
2023/04/08 22:20:24;;;;;;;9.87;6.40;;;7.00;99.90;;;;;;10437985;28;20284;-70
2023/04/08 22:25:24;;;;;;;8.17;5.93;;;6.90;99.90;;;;;;10432480;28;20245;-71
2023/04/08 22:30:25;;;;;;;15.93;7.87;;;6.90;99.90;;;;;;10432214;28;20911;-71
2023/04/08 22:35:25;;;;;;;12.40;7.50;;;6.90;99.90;;;;;;10431919;28;20299;-71
2023/04/08 22:40:26;;;;;;;19.60;9.13;;;7.00;99.90;;;;;;10429475;28;20311;-71
2023/04/08 22:45:27;;;;;;;41.50;14.50;;;7.00;99.90;;;;;;10434251;28;20225;-71
2023/04/08 22:50:28;;;;;;;19.43;9.10;;;7.10;99.90;;;;;;10427829;28;20228;-71
2023/04/08 22:55:29;;;;;;;7.27;5.40;;;7.20;99.90;;;;;;10426459;28;20217;-72
2023/04/08 23:00:30;;;;;;;5.63;5.03;;;7.30;99.90;;;;;;10423479;28;20228;-72
2023/04/08 23:05:30;;;;;;;13.60;6.60;;;7.50;99.90;;;;;;10415531;28;20273;-71
2023/04/08 23:10:31;;;;;;;13.90;7.40;;;7.40;99.90;;;;;;10424435;28;20212;-71
2023/04/08 23:15:31;;;;;;;13.23;6.90;;;7.20;99.90;;;;;;10422242;28;20189;-71
2023/04/08 23:20:33;;;;;;;11.73;6.57;;;7.00;99.90;;;;;;10431685;28;20254;-71
2023/04/08 23:25:35;;;;;;;13.50;6.37;;;7.00;99.90;;;;;;10429407;28;20224;-71
2023/04/08 23:30:36;;;;;;;15.67;7.37;;;6.90;99.90;;;;;;10431952;28;20631;-70
2023/04/08 23:35:40;;;;;;;18.30;8.07;;;6.90;99.90;;;;;;10427306;28;20236;-71
2023/04/08 23:40:40;;;;;;;33.63;13.77;;;6.90;99.90;;;;;;10432187;28;20223;-71
2023/04/08 23:45:41;;;;;;;25.07;11.20;;;7.00;99.90;;;;;;10425953;28;20228;-72
2023/04/08 23:50:41;;;;;;;17.90;8.67;;;7.20;99.90;;;;;;10425273;28;20326;-71
2023/04/08 23:55:42;;;;;;;11.30;7.23;;;7.30;99.90;;;;;;10425264;28;20789;-71
